sensor_id;sensor_type;location;lat;lon;timestamp;temperature;humidity
2783;DHT22;1399;47.072;15.452;2023-09-30T00:00:58;15.70;93.50
2783;DHT22;1399;47.072;15.452;2023-09-30T00:03:24;15.70;93.50
2783;DHT22;1399;47.072;15.452;2023-09-30T00:05:50;15.70;93.50
2783;DHT22;1399;47.072;15.452;2023-09-30T00:08:16;15.60;93.50
2783;DHT22;1399;47.072;15.452;2023-09-30T00:10:42;15.60;93.50
2783;DHT22;1399;47.072;15.452;2023-09-30T00:13:07;15.60;93.50
2783;DHT22;1399;47.072;15.452;2023-09-30T00:15:33;15.60;93.40
2783;DHT22;1399;47.072;15.452;2023-09-30T00:18:00;15.60;93.50
2783;DHT22;1399;47.072;15.452;2023-09-30T00:20:28;15.60;93.40
2783;DHT22;1399;47.072;15.452;2023-09-30T00:22:53;15.60;93.40
2783;DHT22;1399;47.072;15.452;2023-09-30T00:25:19;15.60;93.40
2783;DHT22;1399;47.072;15.452;2023-09-30T00:27:47;15.60;93.40
2783;DHT22;1399;47.072;15.452;2023-09-30T00:30:13;15.60;93.40
2783;DHT22;1399;47.072;15.452;2023-09-30T00:32:39;15.60;93.40
2783;DHT22;1399;47.072;15.452;2023-09-30T00:35:06;15.50;93.30
2783;DHT22;1399;47.072;15.452;2023-09-30T00:37:34;15.50;93.30
2783;DHT22;1399;47.072;15.452;2023-09-30T00:40:00;15.50;93.30
2783;DHT22;1399;47.072;15.452;2023-09-30T00:42:26;15.50;93.30
2783;DHT22;1399;47.072;15.452;2023-09-30T00:44:52;15.50;93.30
2783;DHT22;1399;47.072;15.452;2023-09-30T00:47:18;15.50;93.30
2783;DHT22;1399;47.072;15.452;2023-09-30T00:49:45;15.50;93.30
2783;DHT22;1399;47.072;15.452;2023-09-30T00:52:11;15.50;93.40
2783;DHT22;1399;47.072;15.452;2023-09-30T00:54:39;15.50;93.40
2783;DHT22;1399;47.072;15.452;2023-09-30T00:57:05;15.50;93.40
2783;DHT22;1399;47.072;15.452;2023-09-30T00:59:31;15.50;93.40
2783;DHT22;1399;47.072;15.452;2023-09-30T01:01:59;15.40;93.40
2783;DHT22;1399;47.072;15.452;2023-09-30T01:04:27;15.40;93.40
2783;DHT22;1399;47.072;15.452;2023-09-30T01:06:53;15.40;93.40
2783;DHT22;1399;47.072;15.452;2023-09-30T01:09:19;15.40;93.40
2783;DHT22;1399;47.072;15.452;2023-09-30T01:11:45;15.40;93.40
2783;DHT22;1399;47.072;15.452;2023-09-30T01:16:50;15.40;93.40
2783;DHT22;1399;47.072;15.452;2023-09-30T01:19:16;15.40;93.40
2783;DHT22;1399;47.072;15.452;2023-09-30T01:21:41;15.40;93.40
2783;DHT22;1399;47.072;15.452;2023-09-30T01:24:12;15.40;93.40
2783;DHT22;1399;47.072;15.452;2023-09-30T01:26:39;15.40;93.40
2783;DHT22;1399;47.072;15.452;2023-09-30T01:29:05;15.30;93.30
2783;DHT22;1399;47.072;15.452;2023-09-30T01:31:30;15.30;93.30
2783;DHT22;1399;47.072;15.452;2023-09-30T01:33:56;15.30;93.30
2783;DHT22;1399;47.072;15.452;2023-09-30T01:36:22;15.30;93.30
2783;DHT22;1399;47.072;15.452;2023-09-30T01:38:48;15.30;93.30
2783;DHT22;1399;47.072;15.452;2023-09-30T01:41:14;15.30;93.30
2783;DHT22;1399;47.072;15.452;2023-09-30T01:43:39;15.30;93.30
2783;DHT22;1399;47.072;15.452;2023-09-30T01:46:05;15.30;93.30
2783;DHT22;1399;47.072;15.452;2023-09-30T01:48:31;15.30;93.30
2783;DHT22;1399;47.072;15.452;2023-09-30T01:50:57;15.20;93.20
2783;DHT22;1399;47.072;15.452;2023-09-30T01:53:23;15.30;93.30
2783;DHT22;1399;47.072;15.452;2023-09-30T01:55:49;15.30;93.30
2783;DHT22;1399;47.072;15.452;2023-09-30T01:58:14;15.30;93.30
2783;DHT22;1399;47.072;15.452;2023-09-30T02:00:40;15.30;93.30
2783;DHT22;1399;47.072;15.452;2023-09-30T02:03:06;15.20;93.20
2783;DHT22;1399;47.072;15.452;2023-09-30T02:05:32;15.30;93.30
2783;DHT22;1399;47.072;15.452;2023-09-30T02:07:58;15.20;93.20
2783;DHT22;1399;47.072;15.452;2023-09-30T02:10:24;15.20;93.20
2783;DHT22;1399;47.072;15.452;2023-09-30T02:12:49;15.20;93.20
2783;DHT22;1399;47.072;15.452;2023-09-30T02:15:15;15.20;93.20
2783;DHT22;1399;47.072;15.452;2023-09-30T02:17:41;15.20;93.20
2783;DHT22;1399;47.072;15.452;2023-09-30T02:20:11;15.20;93.20
2783;DHT22;1399;47.072;15.452;2023-09-30T02:22:41;15.20;93.20
2783;DHT22;1399;47.072;15.452;2023-09-30T02:25:08;15.20;93.20
2783;DHT22;1399;47.072;15.452;2023-09-30T02:27:34;15.20;93.20
2783;DHT22;1399;47.072;15.452;2023-09-30T02:30:00;15.20;93.20
2783;DHT22;1399;47.072;15.452;2023-09-30T02:32:25;15.20;93.30
2783;DHT22;1399;47.072;15.452;2023-09-30T02:34:52;15.20;93.30
2783;DHT22;1399;47.072;15.452;2023-09-30T02:37:17;15.20;93.30
2783;DHT22;1399;47.072;15.452;2023-09-30T02:39:44;15.20;93.30
2783;DHT22;1399;47.072;15.452;2023-09-30T02:42:10;15.20;93.30
2783;DHT22;1399;47.072;15.452;2023-09-30T02:44:36;15.20;93.30
2783;DHT22;1399;47.072;15.452;2023-09-30T02:47:02;15.20;93.40
2783;DHT22;1399;47.072;15.452;2023-09-30T02:49:28;15.20;93.40
2783;DHT22;1399;47.072;15.452;2023-09-30T02:51:53;15.20;93.40
2783;DHT22;1399;47.072;15.452;2023-09-30T02:54:19;15.20;93.40
2783;DHT22;1399;47.072;15.452;2023-09-30T02:56:45;15.20;93.40
2783;DHT22;1399;47.072;15.452;2023-09-30T02:59:13;15.20;93.40
2783;DHT22;1399;47.072;15.452;2023-09-30T03:01:39;15.20;93.80
2783;DHT22;1399;47.072;15.452;2023-09-30T03:04:05;15.20;93.50
2783;DHT22;1399;47.072;15.452;2023-09-30T03:06:36;15.30;93.50
2783;DHT22;1399;47.072;15.452;2023-09-30T03:09:03;15.30;93.60
2783;DHT22;1399;47.072;15.452;2023-09-30T03:11:30;15.30;93.60
2783;DHT22;1399;47.072;15.452;2023-09-30T03:13:57;15.20;93.50
2783;DHT22;1399;47.072;15.452;2023-09-30T03:16:23;15.20;93.60
2783;DHT22;1399;47.072;15.452;2023-09-30T03:18:50;15.30;93.60
2783;DHT22;1399;47.072;15.452;2023-09-30T03:21:16;15.30;93.60
2783;DHT22;1399;47.072;15.452;2023-09-30T03:23:42;15.30;93.60
2783;DHT22;1399;47.072;15.452;2023-09-30T03:26:08;15.30;93.60
2783;DHT22;1399;47.072;15.452;2023-09-30T03:28:38;15.30;93.60
2783;DHT22;1399;47.072;15.452;2023-09-30T03:31:07;15.30;93.60
2783;DHT22;1399;47.072;15.452;2023-09-30T03:33:34;15.30;93.60
2783;DHT22;1399;47.072;15.452;2023-09-30T03:36:00;15.30;93.60
2783;DHT22;1399;47.072;15.452;2023-09-30T03:38:29;15.30;93.60
2783;DHT22;1399;47.072;15.452;2023-09-30T03:40:54;15.30;93.50
2783;DHT22;1399;47.072;15.452;2023-09-30T03:43:23;15.30;93.90
2783;DHT22;1399;47.072;15.452;2023-09-30T03:45:48;15.30;93.60
2783;DHT22;1399;47.072;15.452;2023-09-30T03:48:16;15.30;93.60
2783;DHT22;1399;47.072;15.452;2023-09-30T03:50:44;15.30;93.60
2783;DHT22;1399;47.072;15.452;2023-09-30T03:53:10;15.30;93.60
2783;DHT22;1399;47.072;15.452;2023-09-30T03:55:37;15.30;93.60
2783;DHT22;1399;47.072;15.452;2023-09-30T03:58:03;15.30;93.60
2783;DHT22;1399;47.072;15.452;2023-09-30T04:00:29;15.30;93.70
2783;DHT22;1399;47.072;15.452;2023-09-30T04:02:55;15.30;93.70
2783;DHT22;1399;47.072;15.452;2023-09-30T04:05:24;15.30;93.70
2783;DHT22;1399;47.072;15.452;2023-09-30T04:08:02;15.30;93.70
2783;DHT22;1399;47.072;15.452;2023-09-30T04:10:28;15.30;93.70
2783;DHT22;1399;47.072;15.452;2023-09-30T04:12:55;15.30;93.80
2783;DHT22;1399;47.072;15.452;2023-09-30T04:15:22;15.30;93.80
2783;DHT22;1399;47.072;15.452;2023-09-30T04:17:50;15.30;93.70
2783;DHT22;1399;47.072;15.452;2023-09-30T04:20:18;15.30;93.70
2783;DHT22;1399;47.072;15.452;2023-09-30T04:22:49;15.30;93.70
2783;DHT22;1399;47.072;15.452;2023-09-30T04:25:16;15.40;93.80
2783;DHT22;1399;47.072;15.452;2023-09-30T04:27:43;15.40;93.80
2783;DHT22;1399;47.072;15.452;2023-09-30T04:30:09;15.40;93.80
2783;DHT22;1399;47.072;15.452;2023-09-30T04:32:37;15.40;93.80
2783;DHT22;1399;47.072;15.452;2023-09-30T04:35:05;15.40;93.90
2783;DHT22;1399;47.072;15.452;2023-09-30T04:37:31;15.40;93.90
2783;DHT22;1399;47.072;15.452;2023-09-30T04:39:57;15.40;93.90
2783;DHT22;1399;47.072;15.452;2023-09-30T04:42:24;15.40;93.90
2783;DHT22;1399;47.072;15.452;2023-09-30T04:44:52;15.40;93.90
2783;DHT22;1399;47.072;15.452;2023-09-30T04:47:18;15.40;93.90
2783;DHT22;1399;47.072;15.452;2023-09-30T04:49:44;15.40;93.90
2783;DHT22;1399;47.072;15.452;2023-09-30T04:52:10;15.40;93.90
2783;DHT22;1399;47.072;15.452;2023-09-30T04:54:37;15.50;94.00
2783;DHT22;1399;47.072;15.452;2023-09-30T04:57:02;15.50;94.00
2783;DHT22;1399;47.072;15.452;2023-09-30T04:59:28;15.50;94.10
2783;DHT22;1399;47.072;15.452;2023-09-30T05:01:55;15.50;94.10
2783;DHT22;1399;47.072;15.452;2023-09-30T05:04:22;15.50;94.10
2783;DHT22;1399;47.072;15.452;2023-09-30T05:06:51;15.50;94.10
2783;DHT22;1399;47.072;15.452;2023-09-30T05:09:17;15.50;94.10
2783;DHT22;1399;47.072;15.452;2023-09-30T05:11:42;15.50;94.10
2783;DHT22;1399;47.072;15.452;2023-09-30T05:14:09;15.50;94.10
2783;DHT22;1399;47.072;15.452;2023-09-30T05:16:35;15.60;94.10
2783;DHT22;1399;47.072;15.452;2023-09-30T05:19:02;15.60;94.20
2783;DHT22;1399;47.072;15.452;2023-09-30T05:21:28;15.50;94.20
2783;DHT22;1399;47.072;15.452;2023-09-30T05:23:53;15.60;94.20
2783;DHT22;1399;47.072;15.452;2023-09-30T05:26:19;15.60;94.40
2783;DHT22;1399;47.072;15.452;2023-09-30T05:28:45;15.60;94.20
2783;DHT22;1399;47.072;15.452;2023-09-30T05:31:12;15.60;94.20
2783;DHT22;1399;47.072;15.452;2023-09-30T05:33:37;15.60;94.20
2783;DHT22;1399;47.072;15.452;2023-09-30T05:36:04;15.60;94.30
2783;DHT22;1399;47.072;15.452;2023-09-30T05:38:30;15.60;94.30
2783;DHT22;1399;47.072;15.452;2023-09-30T05:40:57;15.70;94.40
2783;DHT22;1399;47.072;15.452;2023-09-30T05:43:25;15.70;94.50
2783;DHT22;1399;47.072;15.452;2023-09-30T05:45:52;15.70;94.50
2783;DHT22;1399;47.072;15.452;2023-09-30T05:48:21;15.70;94.50
2783;DHT22;1399;47.072;15.452;2023-09-30T05:50:47;15.70;94.90
2783;DHT22;1399;47.072;15.452;2023-09-30T05:53:13;15.70;94.50
2783;DHT22;1399;47.072;15.452;2023-09-30T05:55:40;15.70;94.50
2783;DHT22;1399;47.072;15.452;2023-09-30T05:58:09;15.70;94.60
2783;DHT22;1399;47.072;15.452;2023-09-30T06:00:35;15.80;94.70
2783;DHT22;1399;47.072;15.452;2023-09-30T06:03:02;15.80;94.60
2783;DHT22;1399;47.072;15.452;2023-09-30T06:05:30;15.80;94.60
2783;DHT22;1399;47.072;15.452;2023-09-30T06:07:58;15.80;94.60
2783;DHT22;1399;47.072;15.452;2023-09-30T06:10:24;15.80;94.60
2783;DHT22;1399;47.072;15.452;2023-09-30T06:12:53;15.90;94.70
2783;DHT22;1399;47.072;15.452;2023-09-30T06:15:22;15.90;94.70
2783;DHT22;1399;47.072;15.452;2023-09-30T06:17:52;15.90;94.80
2783;DHT22;1399;47.072;15.452;2023-09-30T06:20:19;15.90;94.80
2783;DHT22;1399;47.072;15.452;2023-09-30T06:22:48;16.00;95.00
2783;DHT22;1399;47.072;15.452;2023-09-30T06:25:17;16.00;95.10
2783;DHT22;1399;47.072;15.452;2023-09-30T06:27:47;16.00;95.20
2783;DHT22;1399;47.072;15.452;2023-09-30T06:30:17;16.10;95.30
2783;DHT22;1399;47.072;15.452;2023-09-30T06:32:43;16.10;95.20
2783;DHT22;1399;47.072;15.452;2023-09-30T06:35:10;16.10;95.20
2783;DHT22;1399;47.072;15.452;2023-09-30T06:37:40;16.10;95.30
2783;DHT22;1399;47.072;15.452;2023-09-30T06:40:07;16.10;95.70
2783;DHT22;1399;47.072;15.452;2023-09-30T06:42:35;16.20;95.50
2783;DHT22;1399;47.072;15.452;2023-09-30T06:45:04;16.20;95.60
2783;DHT22;1399;47.072;15.452;2023-09-30T06:47:32;16.20;95.70
2783;DHT22;1399;47.072;15.452;2023-09-30T06:50:01;16.20;95.80
2783;DHT22;1399;47.072;15.452;2023-09-30T06:52:37;16.20;95.90
2783;DHT22;1399;47.072;15.452;2023-09-30T06:55:03;16.30;96.00
2783;DHT22;1399;47.072;15.452;2023-09-30T06:57:34;16.30;96.00
2783;DHT22;1399;47.072;15.452;2023-09-30T06:59:59;16.30;95.90
2783;DHT22;1399;47.072;15.452;2023-09-30T07:02:26;16.30;95.80
2783;DHT22;1399;47.072;15.452;2023-09-30T07:04:52;16.40;95.80
2783;DHT22;1399;47.072;15.452;2023-09-30T07:07:18;16.40;95.80
2783;DHT22;1399;47.072;15.452;2023-09-30T07:09:44;16.40;95.90
2783;DHT22;1399;47.072;15.452;2023-09-30T07:12:10;16.40;95.90
2783;DHT22;1399;47.072;15.452;2023-09-30T07:14:36;16.50;96.10
2783;DHT22;1399;47.072;15.452;2023-09-30T07:17:02;16.50;96.00
2783;DHT22;1399;47.072;15.452;2023-09-30T07:19:30;16.60;96.00
2783;DHT22;1399;47.072;15.452;2023-09-30T07:21:56;16.60;96.00
2783;DHT22;1399;47.072;15.452;2023-09-30T07:24:22;16.70;95.90
2783;DHT22;1399;47.072;15.452;2023-09-30T07:26:48;16.70;95.70
2783;DHT22;1399;47.072;15.452;2023-09-30T07:29:13;16.80;95.60
2783;DHT22;1399;47.072;15.452;2023-09-30T07:31:39;16.80;95.40
2783;DHT22;1399;47.072;15.452;2023-09-30T07:34:05;16.80;95.30
2783;DHT22;1399;47.072;15.452;2023-09-30T07:36:31;16.90;95.20
2783;DHT22;1399;47.072;15.452;2023-09-30T07:38:57;16.90;95.00
2783;DHT22;1399;47.072;15.452;2023-09-30T07:41:22;16.90;95.00
2783;DHT22;1399;47.072;15.452;2023-09-30T07:43:49;17.00;95.00
2783;DHT22;1399;47.072;15.452;2023-09-30T07:46:15;17.00;94.90
2783;DHT22;1399;47.072;15.452;2023-09-30T07:48:42;17.10;95.00
2783;DHT22;1399;47.072;15.452;2023-09-30T07:51:07;17.10;95.00
2783;DHT22;1399;47.072;15.452;2023-09-30T07:53:38;17.10;95.10
2783;DHT22;1399;47.072;15.452;2023-09-30T07:56:05;17.20;95.20
2783;DHT22;1399;47.072;15.452;2023-09-30T07:58:31;17.30;95.30
2783;DHT22;1399;47.072;15.452;2023-09-30T08:00:58;17.30;95.40
2783;DHT22;1399;47.072;15.452;2023-09-30T08:03:25;17.40;95.40
2783;DHT22;1399;47.072;15.452;2023-09-30T08:05:51;17.40;95.50
2783;DHT22;1399;47.072;15.452;2023-09-30T08:08:17;17.50;95.60
2783;DHT22;1399;47.072;15.452;2023-09-30T08:10:43;17.60;95.60
2783;DHT22;1399;47.072;15.452;2023-09-30T08:13:09;17.60;95.60
2783;DHT22;1399;47.072;15.452;2023-09-30T08:15:35;17.70;95.60
2783;DHT22;1399;47.072;15.452;2023-09-30T08:18:02;17.70;95.60
2783;DHT22;1399;47.072;15.452;2023-09-30T08:20:29;17.80;95.60
2783;DHT22;1399;47.072;15.452;2023-09-30T08:22:55;17.90;95.70
2783;DHT22;1399;47.072;15.452;2023-09-30T08:25:21;17.90;95.70
2783;DHT22;1399;47.072;15.452;2023-09-30T08:27:47;17.90;95.70
2783;DHT22;1399;47.072;15.452;2023-09-30T08:30:15;18.00;95.70
2783;DHT22;1399;47.072;15.452;2023-09-30T08:32:41;18.00;95.70
2783;DHT22;1399;47.072;15.452;2023-09-30T08:35:07;18.10;95.70
2783;DHT22;1399;47.072;15.452;2023-09-30T08:37:33;18.10;95.70
2783;DHT22;1399;47.072;15.452;2023-09-30T08:39:59;18.20;95.70
2783;DHT22;1399;47.072;15.452;2023-09-30T08:42:27;18.20;95.60
2783;DHT22;1399;47.072;15.452;2023-09-30T08:44:58;18.30;95.60
2783;DHT22;1399;47.072;15.452;2023-09-30T08:47:28;18.30;95.60
2783;DHT22;1399;47.072;15.452;2023-09-30T08:49:54;18.40;95.60
2783;DHT22;1399;47.072;15.452;2023-09-30T08:52:23;18.40;95.60
2783;DHT22;1399;47.072;15.452;2023-09-30T08:54:50;18.40;95.60
2783;DHT22;1399;47.072;15.452;2023-09-30T08:57:19;18.50;95.70
2783;DHT22;1399;47.072;15.452;2023-09-30T08:59:46;18.50;95.70
2783;DHT22;1399;47.072;15.452;2023-09-30T09:02:15;18.50;95.70
2783;DHT22;1399;47.072;15.452;2023-09-30T09:04:41;18.50;95.70
2783;DHT22;1399;47.072;15.452;2023-09-30T09:07:07;18.60;95.70
2783;DHT22;1399;47.072;15.452;2023-09-30T09:09:33;18.60;95.70
2783;DHT22;1399;47.072;15.452;2023-09-30T09:11:59;18.60;95.90
2783;DHT22;1399;47.072;15.452;2023-09-30T09:14:41;18.70;95.70
2783;DHT22;1399;47.072;15.452;2023-09-30T09:17:10;18.70;95.70
2783;DHT22;1399;47.072;15.452;2023-09-30T09:19:36;18.80;95.60
2783;DHT22;1399;47.072;15.452;2023-09-30T09:22:03;18.90;95.60
2783;DHT22;1399;47.072;15.452;2023-09-30T09:24:37;18.90;95.40
2783;DHT22;1399;47.072;15.452;2023-09-30T09:27:12;19.00;95.40
2783;DHT22;1399;47.072;15.452;2023-09-30T09:29:40;19.10;95.30
2783;DHT22;1399;47.072;15.452;2023-09-30T09:34:37;19.20;95.20
2783;DHT22;1399;47.072;15.452;2023-09-30T09:37:32;19.20;95.10
2783;DHT22;1399;47.072;15.452;2023-09-30T09:39:59;19.30;95.10
2783;DHT22;1399;47.072;15.452;2023-09-30T09:42:29;19.30;95.40
2783;DHT22;1399;47.072;15.452;2023-09-30T09:44:59;19.40;94.90
2783;DHT22;1399;47.072;15.452;2023-09-30T09:47:25;19.40;94.90
2783;DHT22;1399;47.072;15.452;2023-09-30T09:49:52;19.40;94.80
2783;DHT22;1399;47.072;15.452;2023-09-30T09:52:19;19.40;94.80
2783;DHT22;1399;47.072;15.452;2023-09-30T09:54:46;19.40;94.80
2783;DHT22;1399;47.072;15.452;2023-09-30T09:57:14;19.40;94.70
2783;DHT22;1399;47.072;15.452;2023-09-30T09:59:43;19.40;94.70
2783;DHT22;1399;47.072;15.452;2023-09-30T10:02:14;19.40;94.70
2783;DHT22;1399;47.072;15.452;2023-09-30T10:04:42;19.40;94.60
2783;DHT22;1399;47.072;15.452;2023-09-30T10:07:13;19.50;94.60
2783;DHT22;1399;47.072;15.452;2023-09-30T10:09:43;19.50;94.60
2783;DHT22;1399;47.072;15.452;2023-09-30T10:12:12;19.50;94.50
2783;DHT22;1399;47.072;15.452;2023-09-30T10:14:38;19.50;94.50
2783;DHT22;1399;47.072;15.452;2023-09-30T10:17:04;19.50;94.50
2783;DHT22;1399;47.072;15.452;2023-09-30T10:19:29;19.50;94.50
2783;DHT22;1399;47.072;15.452;2023-09-30T10:22:21;19.50;94.50
2783;DHT22;1399;47.072;15.452;2023-09-30T10:24:57;19.50;94.50
2783;DHT22;1399;47.072;15.452;2023-09-30T10:35:41;19.50;94.40
2783;DHT22;1399;47.072;15.452;2023-09-30T10:40:50;19.50;94.30
2783;DHT22;1399;47.072;15.452;2023-09-30T10:43:36;19.50;94.20
2783;DHT22;1399;47.072;15.452;2023-09-30T10:46:03;19.50;94.20
2783;DHT22;1399;47.072;15.452;2023-09-30T10:48:33;19.50;94.20
2783;DHT22;1399;47.072;15.452;2023-09-30T10:51:13;19.50;94.20
2783;DHT22;1399;47.072;15.452;2023-09-30T10:53:44;19.50;94.20
2783;DHT22;1399;47.072;15.452;2023-09-30T10:56:10;19.50;94.20
2783;DHT22;1399;47.072;15.452;2023-09-30T11:01:11;19.50;94.20
2783;DHT22;1399;47.072;15.452;2023-09-30T11:03:39;19.50;94.20
2783;DHT22;1399;47.072;15.452;2023-09-30T11:06:06;19.50;94.20
2783;DHT22;1399;47.072;15.452;2023-09-30T11:08:33;19.50;94.10
2783;DHT22;1399;47.072;15.452;2023-09-30T11:11:00;19.50;94.10
2783;DHT22;1399;47.072;15.452;2023-09-30T11:13:33;19.50;94.10
2783;DHT22;1399;47.072;15.452;2023-09-30T11:16:03;19.50;94.10
2783;DHT22;1399;47.072;15.452;2023-09-30T11:18:32;19.50;94.10
2783;DHT22;1399;47.072;15.452;2023-09-30T11:21:10;19.50;94.10
2783;DHT22;1399;47.072;15.452;2023-09-30T11:23:37;19.60;94.10
2783;DHT22;1399;47.072;15.452;2023-09-30T11:26:03;19.60;94.00
2783;DHT22;1399;47.072;15.452;2023-09-30T11:28:40;19.60;94.00
2783;DHT22;1399;47.072;15.452;2023-09-30T11:31:09;19.60;94.00
2783;DHT22;1399;47.072;15.452;2023-09-30T11:33:53;19.60;94.00
2783;DHT22;1399;47.072;15.452;2023-09-30T11:36:23;19.50;93.90
2783;DHT22;1399;47.072;15.452;2023-09-30T11:38:50;19.60;93.90
2783;DHT22;1399;47.072;15.452;2023-09-30T11:41:18;19.60;93.90
2783;DHT22;1399;47.072;15.452;2023-09-30T11:44:02;19.60;93.80
2783;DHT22;1399;47.072;15.452;2023-09-30T11:46:30;19.60;93.80
2783;DHT22;1399;47.072;15.452;2023-09-30T11:49:04;19.60;93.80
2783;DHT22;1399;47.072;15.452;2023-09-30T11:51:43;19.60;93.80
2783;DHT22;1399;47.072;15.452;2023-09-30T11:54:14;19.60;93.80
2783;DHT22;1399;47.072;15.452;2023-09-30T11:56:42;19.60;93.80
2783;DHT22;1399;47.072;15.452;2023-09-30T11:59:08;19.60;93.80
2783;DHT22;1399;47.072;15.452;2023-09-30T12:01:37;19.60;93.70
2783;DHT22;1399;47.072;15.452;2023-09-30T12:04:03;19.60;93.70
2783;DHT22;1399;47.072;15.452;2023-09-30T12:06:29;19.60;93.70
2783;DHT22;1399;47.072;15.452;2023-09-30T12:08:55;19.60;93.60
2783;DHT22;1399;47.072;15.452;2023-09-30T12:11:21;19.60;93.60
2783;DHT22;1399;47.072;15.452;2023-09-30T12:13:49;19.60;93.60
2783;DHT22;1399;47.072;15.452;2023-09-30T12:16:16;19.60;93.60
2783;DHT22;1399;47.072;15.452;2023-09-30T12:18:42;19.60;93.60
2783;DHT22;1399;47.072;15.452;2023-09-30T12:21:11;19.70;93.60
2783;DHT22;1399;47.072;15.452;2023-09-30T12:23:39;19.70;93.50
2783;DHT22;1399;47.072;15.452;2023-09-30T12:26:04;19.80;93.50
2783;DHT22;1399;47.072;15.452;2023-09-30T12:28:34;19.80;93.40
2783;DHT22;1399;47.072;15.452;2023-09-30T12:31:01;19.80;93.30
2783;DHT22;1399;47.072;15.452;2023-09-30T12:33:30;19.80;93.20
2783;DHT22;1399;47.072;15.452;2023-09-30T12:35:57;19.80;93.20
2783;DHT22;1399;47.072;15.452;2023-09-30T12:38:24;19.80;93.20
2783;DHT22;1399;47.072;15.452;2023-09-30T12:40:52;19.80;93.20
2783;DHT22;1399;47.072;15.452;2023-09-30T12:43:19;19.80;93.20
2783;DHT22;1399;47.072;15.452;2023-09-30T12:45:45;19.80;93.20
2783;DHT22;1399;47.072;15.452;2023-09-30T12:48:12;19.90;93.20
2783;DHT22;1399;47.072;15.452;2023-09-30T12:50:38;19.90;93.10
2783;DHT22;1399;47.072;15.452;2023-09-30T12:53:04;19.90;93.00
2783;DHT22;1399;47.072;15.452;2023-09-30T12:55:48;20.00;93.00
2783;DHT22;1399;47.072;15.452;2023-09-30T12:58:14;20.00;92.90
2783;DHT22;1399;47.072;15.452;2023-09-30T13:00:40;20.00;92.90
2783;DHT22;1399;47.072;15.452;2023-09-30T13:03:06;20.00;92.90
2783;DHT22;1399;47.072;15.452;2023-09-30T13:05:33;20.00;92.80
2783;DHT22;1399;47.072;15.452;2023-09-30T13:07:59;20.00;92.80
2783;DHT22;1399;47.072;15.452;2023-09-30T13:10:25;20.00;92.80
2783;DHT22;1399;47.072;15.452;2023-09-30T13:12:51;20.00;92.70
2783;DHT22;1399;47.072;15.452;2023-09-30T13:15:19;20.00;92.70
2783;DHT22;1399;47.072;15.452;2023-09-30T13:17:45;20.00;92.70
2783;DHT22;1399;47.072;15.452;2023-09-30T13:20:11;20.10;92.70
2783;DHT22;1399;47.072;15.452;2023-09-30T13:22:38;20.10;92.70
2783;DHT22;1399;47.072;15.452;2023-09-30T13:25:07;20.10;92.60
2783;DHT22;1399;47.072;15.452;2023-09-30T13:27:34;20.10;92.50
2783;DHT22;1399;47.072;15.452;2023-09-30T13:30:00;20.10;92.50
2783;DHT22;1399;47.072;15.452;2023-09-30T13:32:27;20.10;92.50
2783;DHT22;1399;47.072;15.452;2023-09-30T13:34:53;20.10;92.50
2783;DHT22;1399;47.072;15.452;2023-09-30T13:37:19;20.10;92.50
2783;DHT22;1399;47.072;15.452;2023-09-30T13:39:45;20.10;92.50
2783;DHT22;1399;47.072;15.452;2023-09-30T13:42:11;20.00;92.50
2783;DHT22;1399;47.072;15.452;2023-09-30T13:44:37;20.00;92.50
2783;DHT22;1399;47.072;15.452;2023-09-30T13:47:03;20.00;92.50
2783;DHT22;1399;47.072;15.452;2023-09-30T13:49:28;20.00;92.50
2783;DHT22;1399;47.072;15.452;2023-09-30T13:51:56;20.00;92.50
2783;DHT22;1399;47.072;15.452;2023-09-30T13:54:21;20.00;92.50
2783;DHT22;1399;47.072;15.452;2023-09-30T13:56:47;20.00;92.50
2783;DHT22;1399;47.072;15.452;2023-09-30T13:59:13;20.00;92.50
2783;DHT22;1399;47.072;15.452;2023-09-30T14:01:39;20.00;92.40
2783;DHT22;1399;47.072;15.452;2023-09-30T14:04:07;20.00;92.40
2783;DHT22;1399;47.072;15.452;2023-09-30T14:06:33;20.00;92.50
2783;DHT22;1399;47.072;15.452;2023-09-30T14:08:59;20.00;92.50
2783;DHT22;1399;47.072;15.452;2023-09-30T14:11:26;20.00;92.50
2783;DHT22;1399;47.072;15.452;2023-09-30T14:13:51;20.00;92.40
2783;DHT22;1399;47.072;15.452;2023-09-30T14:16:17;20.00;92.40
2783;DHT22;1399;47.072;15.452;2023-09-30T14:18:43;20.00;92.40
2783;DHT22;1399;47.072;15.452;2023-09-30T14:21:10;20.00;92.40
2783;DHT22;1399;47.072;15.452;2023-09-30T14:23:36;19.90;92.40
2783;DHT22;1399;47.072;15.452;2023-09-30T14:26:02;20.00;92.40
2783;DHT22;1399;47.072;15.452;2023-09-30T14:28:36;19.90;92.40
2783;DHT22;1399;47.072;15.452;2023-09-30T14:31:03;19.90;92.40
2783;DHT22;1399;47.072;15.452;2023-09-30T14:33:29;19.90;92.40
2783;DHT22;1399;47.072;15.452;2023-09-30T14:35:55;19.90;92.40
2783;DHT22;1399;47.072;15.452;2023-09-30T14:38:22;19.90;92.40
2783;DHT22;1399;47.072;15.452;2023-09-30T14:40:48;20.00;92.40
2783;DHT22;1399;47.072;15.452;2023-09-30T14:43:15;20.00;92.40
2783;DHT22;1399;47.072;15.452;2023-09-30T14:45:41;20.00;92.40
2783;DHT22;1399;47.072;15.452;2023-09-30T14:48:08;20.00;92.30
2783;DHT22;1399;47.072;15.452;2023-09-30T14:50:35;20.00;92.30
2783;DHT22;1399;47.072;15.452;2023-09-30T14:53:02;20.00;92.30
2783;DHT22;1399;47.072;15.452;2023-09-30T14:55:30;20.00;92.30
2783;DHT22;1399;47.072;15.452;2023-09-30T14:57:56;20.00;92.20
2783;DHT22;1399;47.072;15.452;2023-09-30T15:00:22;20.00;92.30
2783;DHT22;1399;47.072;15.452;2023-09-30T15:02:50;20.00;92.20
2783;DHT22;1399;47.072;15.452;2023-09-30T15:05:16;19.90;92.20
2783;DHT22;1399;47.072;15.452;2023-09-30T15:07:42;19.90;92.20
2783;DHT22;1399;47.072;15.452;2023-09-30T15:10:08;20.00;92.20
2783;DHT22;1399;47.072;15.452;2023-09-30T15:12:35;19.90;92.10
2783;DHT22;1399;47.072;15.452;2023-09-30T15:15:00;19.90;92.20
2783;DHT22;1399;47.072;15.452;2023-09-30T15:17:26;19.90;92.20
2783;DHT22;1399;47.072;15.452;2023-09-30T15:19:54;19.90;92.20
2783;DHT22;1399;47.072;15.452;2023-09-30T15:22:20;19.90;92.20
2783;DHT22;1399;47.072;15.452;2023-09-30T15:24:46;19.90;92.20
2783;DHT22;1399;47.072;15.452;2023-09-30T15:27:11;19.90;92.20
2783;DHT22;1399;47.072;15.452;2023-09-30T15:29:37;19.90;92.60
2783;DHT22;1399;47.072;15.452;2023-09-30T15:32:03;19.90;92.20
2783;DHT22;1399;47.072;15.452;2023-09-30T15:34:30;19.90;92.20
2783;DHT22;1399;47.072;15.452;2023-09-30T15:36:56;19.80;92.20
2783;DHT22;1399;47.072;15.452;2023-09-30T15:39:23;19.80;92.20
2783;DHT22;1399;47.072;15.452;2023-09-30T15:41:48;19.80;92.20
2783;DHT22;1399;47.072;15.452;2023-09-30T15:44:14;19.80;92.20
2783;DHT22;1399;47.072;15.452;2023-09-30T15:46:40;19.80;92.20
2783;DHT22;1399;47.072;15.452;2023-09-30T15:49:05;19.80;92.20
2783;DHT22;1399;47.072;15.452;2023-09-30T15:51:31;19.80;92.20
2783;DHT22;1399;47.072;15.452;2023-09-30T15:53:57;19.70;92.20
2783;DHT22;1399;47.072;15.452;2023-09-30T15:56:23;19.70;92.20
2783;DHT22;1399;47.072;15.452;2023-09-30T15:58:48;19.70;92.20
2783;DHT22;1399;47.072;15.452;2023-09-30T16:01:14;19.70;92.20
2783;DHT22;1399;47.072;15.452;2023-09-30T16:03:40;19.70;92.20